Time;durP1;ratioP1;P1;durP2;ratioP2;P2;SDS_P1;SDS_P2;PMS_P1;PMS_P2;Temp;Humidity;BMP_temperature;BMP_pressure;BME280_temperature;BME280_humidity;BME280_pressure;Samples;Min_cycle;Max_cycle;Signal;HPM_P1;HPM_P2
2022/10/03 00:00:21;;;;;;;1.00;1.00;;;;;;;;;;4978007;28;21085;-59
2022/10/03 00:02:59;;;;;;;1.00;1.00;;;;;;;;;;4987844;28;20234;-60
2022/10/03 00:05:41;;;;;;;0.90;0.90;;;;;;;;;;4997552;28;20285;-59
2022/10/03 00:08:08;;;;;;;0.80;0.80;;;;;;;;;;4989345;28;20345;-60
2022/10/03 00:10:49;;;;;;;0.90;0.90;;;;;;;;;;4983272;28;20218;-59
2022/10/03 00:13:34;;;;;;;1.00;1.00;;;;;;;;;;4988829;28;20215;-57
2022/10/03 00:16:06;;;;;;;1.10;1.10;;;;;;;;;;4980816;28;20345;-57
2022/10/03 00:18:38;;;;;;;1.10;1.10;;;;;;;;;;5003607;28;20227;-58
2022/10/03 00:21:07;;;;;;;1.40;1.40;;;;;;;;;;4993258;28;20309;-58
2022/10/03 00:23:34;;;;;;;1.10;1.10;;;;;;;;;;4997011;28;20224;-58
2022/10/03 00:26:31;;;;;;;1.30;1.30;;;;;;;;;;4978039;28;20237;-58
2022/10/03 00:29:17;;;;;;;1.20;1.20;;;;;;;;;;4986844;28;20619;-59
2022/10/03 00:31:51;;;;;;;1.30;1.30;;;;;;;;;;4973435;28;21213;-59
2022/10/03 00:34:43;;;;;;;1.60;1.60;;;;;;;;;;4978339;28;20233;-59
2022/10/03 00:37:24;;;;;;;1.50;1.50;;;;;;;;;;4943330;28;20683;-58
2022/10/03 00:40:10;;;;;;;1.63;1.63;;;;;;;;;;4969730;28;21284;-59
2022/10/03 00:42:39;;;;;;;0.90;0.90;;;;;;;;;;4949254;28;20703;-58
2022/10/03 00:45:11;;;;;;;1.00;1.00;;;;;;;;;;4990885;28;20225;-57
2022/10/03 00:47:44;;;;;;;1.00;1.00;;;;;;;;;;4971117;28;20242;-58
2022/10/03 00:50:13;;;;;;;0.90;0.90;;;;;;;;;;4994225;28;20249;-58
2022/10/03 00:52:43;;;;;;;0.90;0.90;;;;;;;;;;4983977;28;20235;-58
2022/10/03 00:55:24;;;;;;;0.90;0.90;;;;;;;;;;4987702;28;22289;-59
2022/10/03 00:58:08;;;;;;;0.80;0.80;;;;;;;;;;4982789;28;20926;-58
2022/10/03 01:00:34;;;;;;;0.80;0.80;;;;;;;;;;4969022;28;20225;-58
2022/10/03 01:03:05;;;;;;;0.90;0.90;;;;;;;;;;4982605;28;20340;-60
2022/10/03 01:05:36;;;;;;;0.90;0.90;;;;;;;;;;4981347;28;20229;-57
2022/10/03 01:08:02;;;;;;;0.90;0.90;;;;;;;;;;4985650;28;20235;-58
2022/10/03 01:10:35;;;;;;;0.80;0.80;;;;;;;;;;4982026;28;20691;-57
2022/10/03 01:13:01;;;;;;;1.00;1.00;;;;;;;;;;4971718;28;20234;-58
2022/10/03 01:15:46;;;;;;;1.40;1.40;;;;;;;;;;4990130;28;20223;-59
2022/10/03 01:18:18;;;;;;;1.47;1.47;;;;;;;;;;4968094;28;20214;-59
2022/10/03 01:20:47;;;;;;;1.90;1.80;;;;;;;;;;4971129;28;20383;-58
2022/10/03 01:23:19;;;;;;;1.23;1.23;;;;;;;;;;4983437;28;20221;-57
2022/10/03 01:26:05;;;;;;;1.03;1.03;;;;;;;;;;4980552;28;20645;-58
2022/10/03 01:31:40;;;;;;;1.00;1.00;;;;;;;;;;4980110;28;20237;-58
2022/10/03 01:34:24;;;;;;;1.10;1.10;;;;;;;;;;5000628;28;20224;-57
2022/10/03 01:36:50;;;;;;;1.10;1.10;;;;;;;;;;4990559;28;20264;-58
2022/10/03 01:39:26;;;;;;;1.10;1.10;;;;;;;;;;4984265;28;20209;-58
2022/10/03 01:41:57;;;;;;;1.10;1.10;;;;;;;;;;4993509;28;20237;-58
2022/10/03 01:44:24;;;;;;;1.10;1.10;;;;;;;;;;5002269;28;20349;-58
2022/10/03 01:47:08;;;;;;;1.00;1.00;;;;;;;;;;4997965;28;20237;-58
2022/10/03 01:49:46;;;;;;;1.00;1.00;;;;;;;;;;5007408;28;20238;-59
2022/10/03 01:52:15;;;;;;;0.90;0.90;;;;;;;;;;4997758;28;20230;-58
2022/10/03 01:54:59;;;;;;;0.87;0.87;;;;;;;;;;5005613;28;20693;-58
2022/10/03 01:57:45;;;;;;;0.93;0.93;;;;;;;;;;5005181;28;20917;-58
2022/10/03 02:00:12;;;;;;;1.90;1.80;;;;;;;;;;4995111;28;20228;-59
2022/10/03 02:02:41;;;;;;;1.63;1.63;;;;;;;;;;4997686;28;20228;-58
2022/10/03 02:05:07;;;;;;;1.20;1.20;;;;;;;;;;4976910;28;20228;-58
2022/10/03 02:07:55;;;;;;;1.53;1.53;;;;;;;;;;4997321;28;20203;-58
2022/10/03 02:10:39;;;;;;;0.90;0.90;;;;;;;;;;4971681;28;21208;-58
2022/10/03 02:13:13;;;;;;;0.90;0.90;;;;;;;;;;4981795;28;20288;-58
2022/10/03 02:15:56;;;;;;;0.90;0.90;;;;;;;;;;4991226;28;20252;-58
2022/10/03 02:18:28;;;;;;;1.03;1.03;;;;;;;;;;4979580;28;20305;-58
2022/10/03 02:20:58;;;;;;;0.80;0.80;;;;;;;;;;4992806;28;20233;-58
2022/10/03 02:23:25;;;;;;;0.90;0.90;;;;;;;;;;4984176;28;20221;-58
2022/10/03 02:26:18;;;;;;;0.90;0.90;;;;;;;;;;4985299;28;20594;-57
2022/10/03 02:28:59;;;;;;;0.90;0.90;;;;;;;;;;4958854;28;20803;-58
2022/10/03 02:31:37;;;;;;;1.60;1.60;;;;;;;;;;4966702;28;20218;-59
2022/10/03 02:34:07;;;;;;;1.40;1.40;;;;;;;;;;4987880;28;20340;-58
2022/10/03 02:36:47;;;;;;;0.90;0.90;;;;;;;;;;4991482;28;20243;-59
2022/10/03 02:39:31;;;;;;;0.80;0.80;;;;;;;;;;4996249;28;20291;-59
2022/10/03 02:42:10;;;;;;;0.80;0.80;;;;;;;;;;4994202;28;20617;-59
2022/10/03 02:44:56;;;;;;;0.80;0.80;;;;;;;;;;4989291;28;20252;-57
2022/10/03 02:47:37;;;;;;;0.80;0.80;;;;;;;;;;4968748;28;20240;-59
2022/10/03 02:50:42;;;;;;;0.90;0.90;;;;;;;;;;4962181;28;21035;-59
2022/10/03 02:53:08;;;;;;;0.90;0.90;;;;;;;;;;4920841;28;20305;-57
2022/10/03 02:55:52;;;;;;;0.97;0.97;;;;;;;;;;4940184;28;20238;-59
2022/10/03 02:58:18;;;;;;;1.00;1.00;;;;;;;;;;4947105;28;20232;-57
2022/10/03 03:01:03;;;;;;;0.90;0.90;;;;;;;;;;4982434;28;20749;-58
2022/10/03 03:03:55;;;;;;;0.80;0.80;;;;;;;;;;5002981;28;20700;-60
2022/10/03 03:06:34;;;;;;;0.80;0.80;;;;;;;;;;4956169;28;20810;-58
2022/10/03 03:09:02;;;;;;;0.80;0.80;;;;;;;;;;4963743;28;20312;-58
2022/10/03 03:11:28;;;;;;;0.93;0.93;;;;;;;;;;4966176;28;20970;-58
2022/10/03 03:14:12;;;;;;;0.90;0.90;;;;;;;;;;4981597;28;20212;-57
2022/10/03 03:16:45;;;;;;;1.60;1.60;;;;;;;;;;4972529;28;20295;-59
2022/10/03 03:19:13;;;;;;;1.60;1.60;;;;;;;;;;4992185;28;20672;-60
2022/10/03 03:21:48;;;;;;;1.97;1.87;;;;;;;;;;4981705;28;20217;-59
2022/10/03 03:24:22;;;;;;;2.00;1.90;;;;;;;;;;4990217;28;20233;-57
2022/10/03 03:26:54;;;;;;;1.60;1.60;;;;;;;;;;4970733;28;20597;-60
2022/10/03 03:29:25;;;;;;;1.50;1.50;;;;;;;;;;4982691;28;20321;-57
2022/10/03 03:31:54;;;;;;;1.73;1.70;;;;;;;;;;4969668;28;20222;-58
2022/10/03 03:34:41;;;;;;;1.60;1.60;;;;;;;;;;4965587;28;20699;-58
2022/10/03 03:37:11;;;;;;;1.50;1.50;;;;;;;;;;4981245;28;20415;-59
2022/10/03 03:39:57;;;;;;;1.70;1.70;;;;;;;;;;4975645;28;20233;-57
2022/10/03 03:42:47;;;;;;;2.00;1.90;;;;;;;;;;4975828;28;20271;-58
2022/10/03 03:45:28;;;;;;;1.87;1.77;;;;;;;;;;4983316;28;20226;-58
2022/10/03 03:48:12;;;;;;;1.60;1.60;;;;;;;;;;4959489;28;20271;-58
2022/10/03 03:50:57;;;;;;;1.70;1.70;;;;;;;;;;4969864;28;20224;-57
2022/10/03 03:53:38;;;;;;;1.90;1.80;;;;;;;;;;4973214;28;20312;-58
2022/10/03 03:56:23;;;;;;;1.70;1.70;;;;;;;;;;4999722;28;20228;-58
2022/10/03 03:59:07;;;;;;;1.83;1.73;;;;;;;;;;4990643;28;20291;-60
2022/10/03 04:01:52;;;;;;;1.90;1.80;;;;;;;;;;4979462;28;20694;-58
2022/10/03 04:04:33;;;;;;;2.00;1.90;;;;;;;;;;4997820;28;21358;-58
2022/10/03 04:07:21;;;;;;;1.93;1.83;;;;;;;;;;4971990;28;20282;-58
2022/10/03 04:09:59;;;;;;;1.80;1.70;;;;;;;;;;4984851;28;20254;-59
2022/10/03 04:12:25;;;;;;;1.50;1.50;;;;;;;;;;4999985;28;20559;-59
2022/10/03 04:14:54;;;;;;;1.00;1.00;;;;;;;;;;4975373;28;20293;-58
2022/10/03 04:20:25;;;;;;;2.10;2.00;;;;;;;;;;4985312;28;20284;-58
2022/10/03 04:22:59;;;;;;;1.90;1.80;;;;;;;;;;4992578;28;20222;-57
2022/10/03 04:25:35;;;;;;;2.47;2.37;;;;;;;;;;4966457;28;20257;-58
2022/10/03 04:28:05;;;;;;;1.60;1.60;;;;;;;;;;4982226;28;20220;-57
2022/10/03 04:30:31;;;;;;;2.00;1.90;;;;;;;;;;4972262;28;20767;-58
2022/10/03 04:33:16;;;;;;;1.80;1.70;;;;;;;;;;4980563;28;20228;-58
2022/10/03 04:36:05;;;;;;;1.50;1.50;;;;;;;;;;4977415;28;21917;-60
2022/10/03 04:38:43;;;;;;;1.40;1.40;;;;;;;;;;4973823;28;20234;-57
2022/10/03 04:41:11;;;;;;;1.20;1.20;;;;;;;;;;4975124;28;20333;-60
2022/10/03 04:43:51;;;;;;;1.50;1.50;;;;;;;;;;4975608;28;20221;-59
2022/10/03 04:46:17;;;;;;;1.30;1.30;;;;;;;;;;4970899;28;20242;-58
2022/10/03 04:49:02;;;;;;;1.40;1.40;;;;;;;;;;4979953;28;20223;-59
2022/10/03 04:51:37;;;;;;;1.40;1.40;;;;;;;;;;4982037;28;20219;-58
2022/10/03 04:54:04;;;;;;;1.50;1.50;;;;;;;;;;4986550;28;20225;-60
2022/10/03 04:56:33;;;;;;;2.00;1.90;;;;;;;;;;4975053;28;20230;-58
2022/10/03 04:59:11;;;;;;;2.03;1.93;;;;;;;;;;4969071;28;20233;-58
2022/10/03 05:01:41;;;;;;;2.10;2.00;;;;;;;;;;4987754;28;20232;-58
2022/10/03 05:04:19;;;;;;;1.90;1.80;;;;;;;;;;4988203;28;20234;-58
2022/10/03 05:06:51;;;;;;;2.00;1.90;;;;;;;;;;4984133;28;20687;-59
2022/10/03 05:09:31;;;;;;;1.60;1.60;;;;;;;;;;4975840;28;20236;-58
2022/10/03 05:12:06;;;;;;;1.40;1.40;;;;;;;;;;4978868;28;20242;-58
2022/10/03 05:14:48;;;;;;;1.50;1.50;;;;;;;;;;4963058;28;20227;-58
2022/10/03 05:17:18;;;;;;;1.50;1.50;;;;;;;;;;4995172;28;20223;-61
2022/10/03 05:20:03;;;;;;;1.40;1.40;;;;;;;;;;4973988;28;20730;-58
2022/10/03 05:22:30;;;;;;;1.60;1.60;;;;;;;;;;4978110;28;20311;-59
2022/10/03 05:25:10;;;;;;;1.50;1.50;;;;;;;;;;5012538;28;20222;-58
2022/10/03 05:27:50;;;;;;;1.60;1.60;;;;;;;;;;4972390;28;20229;-60
2022/10/03 05:30:52;;;;;;;1.50;1.50;;;;;;;;;;4979704;28;20302;-57
2022/10/03 05:33:36;;;;;;;1.40;1.40;;;;;;;;;;4948078;28;20258;-57
2022/10/03 05:36:05;;;;;;;1.90;1.80;;;;;;;;;;4978076;28;20292;-58
2022/10/03 05:38:33;;;;;;;1.90;1.80;;;;;;;;;;4969327;28;20243;-57
2022/10/03 05:40:59;;;;;;;1.93;1.83;;;;;;;;;;4988418;28;20233;-60
2022/10/03 05:43:35;;;;;;;1.50;1.50;;;;;;;;;;4987346;28;20224;-58
2022/10/03 05:46:04;;;;;;;1.50;1.50;;;;;;;;;;4991552;28;20225;-58
2022/10/03 05:48:32;;;;;;;1.30;1.30;;;;;;;;;;4968973;28;20238;-58
2022/10/03 05:51:16;;;;;;;1.50;1.50;;;;;;;;;;4989745;28;20220;-57
2022/10/03 05:53:54;;;;;;;1.50;1.50;;;;;;;;;;4980165;28;20224;-59
2022/10/03 05:56:43;;;;;;;1.67;1.67;;;;;;;;;;4970888;28;20547;-58
2022/10/03 05:59:24;;;;;;;1.50;1.50;;;;;;;;;;4978241;28;20614;-58
2022/10/03 06:01:50;;;;;;;1.40;1.40;;;;;;;;;;4985022;28;20232;-58
2022/10/03 06:04:35;;;;;;;1.47;1.47;;;;;;;;;;4963366;28;20234;-57
2022/10/03 06:07:05;;;;;;;1.30;1.30;;;;;;;;;;4977355;28;20830;-57
2022/10/03 06:09:49;;;;;;;1.40;1.40;;;;;;;;;;4969948;28;20250;-58
2022/10/03 06:12:26;;;;;;;1.50;1.50;;;;;;;;;;4976451;28;20231;-58
2022/10/03 06:15:02;;;;;;;1.30;1.30;;;;;;;;;;4975764;28;20218;-58
2022/10/03 06:17:30;;;;;;;1.30;1.30;;;;;;;;;;4980590;28;20242;-58
2022/10/03 06:19:59;;;;;;;1.37;1.37;;;;;;;;;;4986966;28;20716;-59
2022/10/03 06:22:31;;;;;;;1.30;1.30;;;;;;;;;;5004253;28;20237;-58
2022/10/03 06:25:04;;;;;;;1.30;1.30;;;;;;;;;;4993976;28;20229;-57
2022/10/03 06:27:48;;;;;;;1.30;1.30;;;;;;;;;;4972405;28;20234;-59
2022/10/03 06:30:17;;;;;;;1.40;1.40;;;;;;;;;;4993901;28;20387;-58
2022/10/03 06:32:50;;;;;;;1.40;1.40;;;;;;;;;;4988401;28;20328;-59
2022/10/03 06:35:39;;;;;;;1.30;1.30;;;;;;;;;;4976906;28;20764;-58
2022/10/03 06:38:24;;;;;;;1.40;1.40;;;;;;;;;;4959795;28;20264;-58
2022/10/03 06:40:53;;;;;;;1.33;1.33;;;;;;;;;;4955037;28;20241;-60
2022/10/03 06:43:24;;;;;;;1.30;1.30;;;;;;;;;;4978380;28;20776;-59
2022/10/03 06:46:03;;;;;;;1.10;1.10;;;;;;;;;;4980001;28;20800;-58
2022/10/03 06:48:41;;;;;;;1.40;1.40;;;;;;;;;;4978553;28;20224;-58
2022/10/03 06:51:07;;;;;;;1.33;1.33;;;;;;;;;;4992955;28;20222;-59
2022/10/03 06:53:52;;;;;;;1.30;1.30;;;;;;;;;;4990183;28;20870;-59
2022/10/03 06:56:39;;;;;;;1.20;1.20;;;;;;;;;;4979241;28;20821;-58
2022/10/03 06:59:09;;;;;;;1.37;1.37;;;;;;;;;;4997579;28;20225;-58
2022/10/03 07:01:42;;;;;;;1.30;1.30;;;;;;;;;;4990606;28;20753;-58
2022/10/03 07:04:09;;;;;;;1.50;1.50;;;;;;;;;;4963440;28;20217;-59
2022/10/03 07:06:36;;;;;;;1.50;1.50;;;;;;;;;;4963886;28;20357;-59
2022/10/03 07:09:11;;;;;;;1.40;1.40;;;;;;;;;;4975683;28;20235;-58
2022/10/03 07:11:55;;;;;;;1.20;1.20;;;;;;;;;;4985276;28;20684;-59
2022/10/03 07:14:35;;;;;;;1.20;1.20;;;;;;;;;;4970961;28;20594;-59
2022/10/03 07:17:21;;;;;;;1.40;1.40;;;;;;;;;;4965436;28;20823;-58
2022/10/03 07:19:51;;;;;;;1.37;1.37;;;;;;;;;;5002009;28;20255;-60
2022/10/03 07:22:38;;;;;;;1.40;1.40;;;;;;;;;;4983106;28;20222;-60
2022/10/03 07:25:07;;;;;;;1.40;1.40;;;;;;;;;;4975633;28;20242;-59
2022/10/03 07:27:33;;;;;;;1.40;1.40;;;;;;;;;;4989845;28;20897;-60
2022/10/03 07:30:03;;;;;;;1.30;1.30;;;;;;;;;;4981364;28;20882;-60
2022/10/03 07:32:38;;;;;;;1.37;1.37;;;;;;;;;;4965908;28;20633;-59
2022/10/03 07:35:23;;;;;;;1.50;1.50;;;;;;;;;;4958349;28;20231;-59
2022/10/03 07:40:54;;;;;;;1.30;1.30;;;;;;;;;;4992416;28;20292;-58
2022/10/03 07:43:26;;;;;;;1.30;1.30;;;;;;;;;;4959910;28;20702;-59
2022/10/03 07:45:52;;;;;;;1.40;1.40;;;;;;;;;;4967059;28;20744;-59
2022/10/03 07:48:42;;;;;;;1.40;1.40;;;;;;;;;;5000003;28;20613;-58
2022/10/03 07:51:12;;;;;;;1.40;1.40;;;;;;;;;;4969220;28;20240;-60
2022/10/03 07:53:47;;;;;;;1.67;1.67;;;;;;;;;;4965421;28;20220;-60
2022/10/03 07:56:26;;;;;;;1.20;1.20;;;;;;;;;;4952714;28;20361;-58
2022/10/03 07:58:58;;;;;;;1.40;1.40;;;;;;;;;;4951514;28;20593;-57
2022/10/03 08:01:30;;;;;;;1.20;1.20;;;;;;;;;;4981366;28;20271;-58
2022/10/03 08:04:04;;;;;;;1.30;1.30;;;;;;;;;;4929085;28;20703;-58
2022/10/03 08:06:37;;;;;;;1.40;1.40;;;;;;;;;;4917768;28;20708;-59
2022/10/03 08:09:11;;;;;;;1.10;1.10;;;;;;;;;;4947993;28;20764;-59
2022/10/03 08:11:50;;;;;;;1.20;1.20;;;;;;;;;;4941435;28;20227;-59
2022/10/03 08:14:19;;;;;;;1.40;1.40;;;;;;;;;;4951793;28;20233;-59
2022/10/03 08:16:45;;;;;;;1.33;1.33;;;;;;;;;;4989175;28;20223;-59
2022/10/03 08:19:30;;;;;;;1.30;1.30;;;;;;;;;;5002381;28;20744;-59
2022/10/03 08:21:56;;;;;;;1.20;1.20;;;;;;;;;;5000968;28;20229;-58
2022/10/03 08:24:44;;;;;;;1.00;1.00;;;;;;;;;;4998572;28;20686;-59
2022/10/03 08:27:22;;;;;;;1.20;1.20;;;;;;;;;;4995108;28;20288;-59
2022/10/03 08:29:49;;;;;;;1.03;1.03;;;;;;;;;;4983368;28;20315;-59
2022/10/03 08:32:16;;;;;;;0.80;0.80;;;;;;;;;;4979664;28;20241;-59
2022/10/03 08:34:56;;;;;;;1.00;1.00;;;;;;;;;;4999599;28;20219;-60
2022/10/03 08:37:22;;;;;;;1.10;1.10;;;;;;;;;;4979544;28;20584;-58
2022/10/03 08:40:12;;;;;;;1.00;1.00;;;;;;;;;;5014649;28;20224;-59
2022/10/03 08:42:53;;;;;;;1.10;1.10;;;;;;;;;;4984385;28;20814;-58
2022/10/03 08:45:38;;;;;;;0.80;0.80;;;;;;;;;;4983879;28;20236;-59
2022/10/03 08:48:19;;;;;;;1.00;1.00;;;;;;;;;;5029411;28;20209;-58
2022/10/03 08:51:04;;;;;;;0.80;0.80;;;;;;;;;;4986383;28;21165;-59
2022/10/03 08:53:43;;;;;;;1.00;1.00;;;;;;;;;;4997106;28;20223;-58
2022/10/03 08:56:12;;;;;;;1.00;1.00;;;;;;;;;;4996397;28;20220;-58
2022/10/03 08:58:41;;;;;;;1.13;1.13;;;;;;;;;;4986488;28;20218;-59
2022/10/03 09:01:07;;;;;;;0.90;0.90;;;;;;;;;;5004228;28;20658;-58
2022/10/03 09:03:39;;;;;;;1.40;1.40;;;;;;;;;;4992394;28;20257;-59
2022/10/03 09:06:23;;;;;;;0.90;0.90;;;;;;;;;;5003204;28;20237;-59
2022/10/03 09:09:08;;;;;;;1.10;1.10;;;;;;;;;;4992462;28;20221;-60
2022/10/03 09:11:49;;;;;;;1.40;1.40;;;;;;;;;;4997479;28;20225;-59
2022/10/03 09:14:15;;;;;;;1.58;1.58;;;;;;;;;;4986081;28;20240;-59
2022/10/03 09:16:41;;;;;;;1.50;1.50;;;;;;;;;;4983517;28;20221;-60
2022/10/03 09:19:17;;;;;;;0.88;0.88;;;;;;;;;;4987690;28;21474;-59
2022/10/03 09:21:46;;;;;;;0.80;0.80;;;;;;;;;;4990071;28;20354;-59
2022/10/03 09:24:13;;;;;;;0.95;0.95;;;;;;;;;;5004652;28;20721;-59
2022/10/03 09:26:52;;;;;;;1.00;1.00;;;;;;;;;;4997053;28;20233;-59
2022/10/03 09:29:22;;;;;;;0.90;0.90;;;;;;;;;;4996496;28;20680;-59
2022/10/03 09:32:14;;;;;;;0.80;0.80;;;;;;;;;;4989508;28;20356;-59
2022/10/03 09:34:56;;;;;;;0.90;0.90;;;;;;;;;;4966334;28;20226;-60
2022/10/03 09:37:31;;;;;;;0.90;0.90;;;;;;;;;;4984989;28;20221;-60
2022/10/03 09:40:02;;;;;;;0.80;0.80;;;;;;;;;;4978992;28;20226;-60
2022/10/03 09:42:46;;;;;;;1.20;1.20;;;;;;;;;;4985793;28;20245;-60
2022/10/03 09:45:31;;;;;;;1.30;1.30;;;;;;;;;;4981893;28;20692;-60
2022/10/03 09:48:02;;;;;;;1.00;1.00;;;;;;;;;;4992233;28;20228;-59
2022/10/03 09:50:52;;;;;;;1.02;1.02;;;;;;;;;;4982599;28;20229;-59
2022/10/03 09:53:40;;;;;;;1.10;1.10;;;;;;;;;;4978502;28;20240;-60
2022/10/03 09:56:25;;;;;;;1.30;1.30;;;;;;;;;;4971604;28;20605;-59
2022/10/03 09:58:51;;;;;;;1.20;1.20;;;;;;;;;;4987297;28;20784;-59
2022/10/03 10:01:17;;;;;;;0.80;0.80;;;;;;;;;;4981496;28;20213;-59
2022/10/03 10:03:46;;;;;;;1.20;1.20;;;;;;;;;;4981028;28;20221;-60
2022/10/03 10:06:30;;;;;;;1.00;1.00;;;;;;;;;;4996583;28;20228;-59
2022/10/03 10:09:02;;;;;;;1.13;1.13;;;;;;;;;;4987371;28;20249;-59
2022/10/03 10:11:44;;;;;;;1.00;1.00;;;;;;;;;;4980373;28;20225;-59
2022/10/03 10:14:13;;;;;;;1.60;1.60;;;;;;;;;;4966725;28;20245;-59
2022/10/03 10:16:42;;;;;;;1.10;1.10;;;;;;;;;;4999868;28;20247;-59
2022/10/03 10:19:24;;;;;;;0.70;0.70;;;;;;;;;;5001416;28;20229;-60
2022/10/03 10:22:09;;;;;;;2.15;2.05;;;;;;;;;;4990937;28;20697;-60
2022/10/03 10:24:53;;;;;;;1.00;1.00;;;;;;;;;;4982000;28;20270;-62
2022/10/03 10:27:31;;;;;;;1.10;1.10;;;;;;;;;;4984184;28;20381;-59
2022/10/03 10:30:02;;;;;;;0.90;0.90;;;;;;;;;;5007100;28;20233;-61
2022/10/03 10:33:01;;;;;;;1.00;1.00;;;;;;;;;;4978572;28;20729;-61
2022/10/03 10:35:36;;;;;;;0.90;0.90;;;;;;;;;;4967224;28;20244;-60
2022/10/03 10:38:18;;;;;;;1.00;1.00;;;;;;;;;;4980300;28;20226;-60
2022/10/03 10:41:03;;;;;;;1.00;1.00;;;;;;;;;;4993530;28;20568;-61
2022/10/03 10:44:04;;;;;;;0.98;0.98;;;;;;;;;;4977420;28;20674;-60
2022/10/03 10:46:34;;;;;;;1.10;1.10;;;;;;;;;;4922328;28;20238;-59
2022/10/03 10:49:19;;;;;;;1.00;1.00;;;;;;;;;;4979371;28;20605;-60
2022/10/03 10:51:53;;;;;;;1.00;1.00;;;;;;;;;;4989338;28;20228;-60
2022/10/03 10:54:22;;;;;;;1.00;1.00;;;;;;;;;;4991174;28;20270;-61
2022/10/03 10:56:57;;;;;;;1.00;1.00;;;;;;;;;;4989932;28;20225;-60
2022/10/03 10:59:42;;;;;;;1.00;1.00;;;;;;;;;;4969125;28;20214;-60
2022/10/03 11:02:26;;;;;;;1.00;1.00;;;;;;;;;;4976113;28;20769;-60
2022/10/03 11:05:03;;;;;;;1.08;1.08;;;;;;;;;;4997207;28;20234;-61
2022/10/03 11:07:47;;;;;;;1.00;1.00;;;;;;;;;;4977732;28;20235;-61
2022/10/03 11:10:19;;;;;;;1.00;1.00;;;;;;;;;;4975776;28;20213;-60
2022/10/03 11:12:45;;;;;;;1.00;1.00;;;;;;;;;;4989032;28;20241;-60
2022/10/03 11:15:14;;;;;;;1.00;1.00;;;;;;;;;;4995305;28;20226;-60
2022/10/03 11:17:40;;;;;;;1.10;1.10;;;;;;;;;;4987522;28;20225;-61
2022/10/03 11:20:24;;;;;;;1.10;1.10;;;;;;;;;;4981270;28;20219;-59
2022/10/03 11:22:56;;;;;;;1.00;1.00;;;;;;;;;;4968854;28;20311;-60
2022/10/03 11:25:32;;;;;;;1.10;1.10;;;;;;;;;;4965795;28;20787;-60
2022/10/03 11:28:15;;;;;;;1.10;1.10;;;;;;;;;;4989358;28;20233;-59
2022/10/03 11:30:41;;;;;;;1.00;1.00;;;;;;;;;;4970911;28;20309;-60
2022/10/03 11:33:32;;;;;;;1.00;1.00;;;;;;;;;;4990483;28;20224;-60
2022/10/03 11:36:03;;;;;;;1.05;1.05;;;;;;;;;;5006458;28;20311;-60
2022/10/03 11:38:29;;;;;;;0.90;0.90;;;;;;;;;;4998603;28;20613;-60
2022/10/03 11:41:08;;;;;;;0.95;0.95;;;;;;;;;;4951186;28;20233;-60
2022/10/03 11:43:45;;;;;;;0.80;0.80;;;;;;;;;;4976287;28;20224;-61
2022/10/03 11:46:29;;;;;;;0.65;0.65;;;;;;;;;;4971597;28;20231;-61
2022/10/03 11:49:15;;;;;;;0.70;0.70;;;;;;;;;;4984465;28;20245;-61
2022/10/03 11:51:42;;;;;;;0.90;0.90;;;;;;;;;;4986339;28;20223;-61
2022/10/03 11:54:18;;;;;;;0.85;0.85;;;;;;;;;;5006112;28;20250;-60
2022/10/03 11:56:46;;;;;;;0.70;0.70;;;;;;;;;;4995326;28;20695;-61
2022/10/03 11:59:17;;;;;;;0.80;0.80;;;;;;;;;;4998076;28;20299;-60
2022/10/03 12:02:02;;;;;;;0.90;0.90;;;;;;;;;;4971145;28;20222;-62
2022/10/03 12:04:28;;;;;;;0.90;0.90;;;;;;;;;;4989633;28;20283;-61
2022/10/03 12:10:01;;;;;;;0.90;0.90;;;;;;;;;;4971894;28;20276;-60
2022/10/03 12:12:34;;;;;;;0.93;0.93;;;;;;;;;;4979084;28;20366;-60
2022/10/03 12:15:05;;;;;;;0.90;0.90;;;;;;;;;;4988262;28;20594;-60
2022/10/03 12:17:32;;;;;;;0.90;0.90;;;;;;;;;;4981025;28;20234;-61
2022/10/03 12:20:17;;;;;;;1.02;1.02;;;;;;;;;;4960907;28;20214;-61
2022/10/03 12:22:55;;;;;;;0.77;0.77;;;;;;;;;;4996910;28;20212;-60
2022/10/03 12:25:22;;;;;;;0.70;0.70;;;;;;;;;;4976464;28;20217;-60
2022/10/03 12:28:00;;;;;;;0.70;0.70;;;;;;;;;;4974553;28;20229;-60
2022/10/03 12:30:27;;;;;;;0.80;0.80;;;;;;;;;;4979987;28;20690;-61
2022/10/03 12:32:59;;;;;;;0.70;0.70;;;;;;;;;;4955995;28;20230;-59
2022/10/03 12:35:29;;;;;;;0.80;0.80;;;;;;;;;;4990426;28;20248;-60
2022/10/03 12:37:59;;;;;;;0.80;0.80;;;;;;;;;;4976823;28;20801;-60
2022/10/03 12:40:37;;;;;;;0.80;0.80;;;;;;;;;;5001422;28;20237;-61
2022/10/03 12:43:23;;;;;;;0.70;0.70;;;;;;;;;;4982515;28;20236;-61
2022/10/03 12:46:12;;;;;;;0.70;0.70;;;;;;;;;;4961171;28;20225;-60
2022/10/03 12:48:41;;;;;;;0.80;0.80;;;;;;;;;;4983963;28;20223;-60
2022/10/03 12:51:16;;;;;;;0.80;0.80;;;;;;;;;;4984560;28;20301;-60
2022/10/03 12:53:51;;;;;;;0.70;0.70;;;;;;;;;;4986186;28;20228;-60
2022/10/03 12:56:21;;;;;;;0.70;0.70;;;;;;;;;;4966648;28;20240;-61
2022/10/03 12:58:50;;;;;;;0.73;0.73;;;;;;;;;;5010449;28;20220;-61
2022/10/03 13:01:27;;;;;;;0.73;0.73;;;;;;;;;;4997891;28;20225;-60
2022/10/03 13:03:54;;;;;;;0.80;0.80;;;;;;;;;;4995702;28;20379;-60
2022/10/03 13:06:27;;;;;;;0.80;0.80;;;;;;;;;;4998487;28;20273;-59
2022/10/03 13:08:53;;;;;;;0.70;0.70;;;;;;;;;;4979915;28;20223;-62
2022/10/03 13:11:31;;;;;;;0.75;0.75;;;;;;;;;;4989841;28;20212;-60
2022/10/03 13:13:57;;;;;;;0.82;0.82;;;;;;;;;;4990955;28;20272;-59
2022/10/03 13:16:31;;;;;;;0.90;0.90;;;;;;;;;;4959663;28;20344;-61
2022/10/03 13:19:00;;;;;;;0.80;0.80;;;;;;;;;;4921332;28;21462;-59
2022/10/03 13:21:41;;;;;;;0.80;0.80;;;;;;;;;;4955542;28;20216;-61
2022/10/03 13:24:19;;;;;;;0.80;0.80;;;;;;;;;;4956300;28;20305;-58
2022/10/03 13:27:17;;;;;;;0.80;0.80;;;;;;;;;;4944266;28;20241;-63
2022/10/03 13:29:44;;;;;;;0.80;0.80;;;;;;;;;;4940642;28;20245;-61
2022/10/03 13:32:18;;;;;;;0.80;0.80;;;;;;;;;;4959418;28;20612;-62
2022/10/03 13:34:47;;;;;;;0.80;0.80;;;;;;;;;;4953354;28;20699;-56
2022/10/03 13:37:15;;;;;;;0.80;0.80;;;;;;;;;;4987272;28;20221;-57
2022/10/03 13:39:44;;;;;;;0.82;0.82;;;;;;;;;;4977738;28;20253;-60
2022/10/03 13:42:21;;;;;;;0.90;0.90;;;;;;;;;;4959643;28;20582;-60
2022/10/03 13:44:54;;;;;;;0.80;0.80;;;;;;;;;;4980419;28;20229;-61
2022/10/03 13:47:20;;;;;;;0.90;0.90;;;;;;;;;;4964824;28;26152;-60
2022/10/03 13:49:47;;;;;;;1.00;1.00;;;;;;;;;;4974946;28;20220;-60
2022/10/03 13:52:31;;;;;;;0.90;0.90;;;;;;;;;;4978297;28;20597;-60
2022/10/03 13:55:14;;;;;;;0.85;0.85;;;;;;;;;;4972029;28;20330;-60
2022/10/03 13:57:44;;;;;;;0.95;0.95;;;;;;;;;;4971083;28;20244;-60
2022/10/03 14:00:19;;;;;;;0.90;0.90;;;;;;;;;;4996616;28;20284;-60
2022/10/03 14:02:48;;;;;;;0.80;0.80;;;;;;;;;;4985025;28;20232;-60
2022/10/03 14:05:20;;;;;;;0.90;0.90;;;;;;;;;;4985166;28;20642;-60
2022/10/03 14:08:05;;;;;;;0.80;0.80;;;;;;;;;;5004449;28;20235;-60
2022/10/03 14:10:50;;;;;;;1.00;1.00;;;;;;;;;;4996614;28;20233;-60
2022/10/03 14:13:24;;;;;;;1.00;1.00;;;;;;;;;;5005261;28;20640;-63
2022/10/03 14:15:54;;;;;;;0.80;0.80;;;;;;;;;;4991611;28;20209;-60
2022/10/03 14:18:23;;;;;;;0.80;0.80;;;;;;;;;;4975069;28;20706;-60
2022/10/03 14:21:11;;;;;;;0.90;0.90;;;;;;;;;;4982636;28;20291;-60
2022/10/03 14:23:38;;;;;;;0.80;0.80;;;;;;;;;;4999728;28;20604;-60
2022/10/03 14:26:06;;;;;;;1.00;1.00;;;;;;;;;;4999779;28;20255;-60
2022/10/03 14:28:46;;;;;;;1.02;1.02;;;;;;;;;;5001909;28;20218;-62
2022/10/03 14:31:13;;;;;;;0.90;0.90;;;;;;;;;;4967189;28;20229;-63
2022/10/03 14:33:46;;;;;;;0.90;0.90;;;;;;;;;;5009394;28;20240;-62
2022/10/03 14:36:15;;;;;;;0.80;0.80;;;;;;;;;;4993430;28;20248;-62
2022/10/03 14:38:56;;;;;;;0.90;0.90;;;;;;;;;;5015294;28;20257;-62
2022/10/03 14:41:35;;;;;;;0.90;0.90;;;;;;;;;;4996099;28;20577;-62
2022/10/03 14:44:01;;;;;;;0.90;0.90;;;;;;;;;;4988883;28;20233;-62
2022/10/03 14:46:28;;;;;;;0.80;0.80;;;;;;;;;;5004830;28;20704;-63
2022/10/03 14:48:57;;;;;;;0.93;0.93;;;;;;;;;;4983492;28;20587;-63
2022/10/03 14:51:24;;;;;;;0.80;0.80;;;;;;;;;;5003631;28;20238;-62
2022/10/03 14:53:55;;;;;;;0.90;0.90;;;;;;;;;;4961976;28;20824;-62
2022/10/03 14:56:23;;;;;;;0.95;0.95;;;;;;;;;;4986544;28;20229;-62
2022/10/03 14:58:53;;;;;;;0.80;0.80;;;;;;;;;;4992934;28;20223;-62
2022/10/03 15:01:20;;;;;;;0.90;0.90;;;;;;;;;;4974841;28;21810;-63
2022/10/03 15:03:56;;;;;;;1.00;1.00;;;;;;;;;;4979545;28;20613;-62
2022/10/03 15:06:42;;;;;;;0.90;0.90;;;;;;;;;;4987175;28;20273;-62
2022/10/03 15:09:09;;;;;;;0.90;0.90;;;;;;;;;;4973901;28;20289;-62
2022/10/03 15:11:36;;;;;;;1.00;1.00;;;;;;;;;;4951927;28;20404;-62
2022/10/03 15:14:02;;;;;;;0.93;0.93;;;;;;;;;;4938386;28;20931;-62
2022/10/03 15:16:31;;;;;;;1.00;1.00;;;;;;;;;;4956993;28;20295;-62
2022/10/03 15:18:59;;;;;;;0.90;0.90;;;;;;;;;;4966072;28;20308;-62
2022/10/03 15:21:25;;;;;;;0.90;0.90;;;;;;;;;;4973714;28;20678;-62
2022/10/03 15:23:58;;;;;;;1.05;1.05;;;;;;;;;;4985478;28;20624;-62
2022/10/03 15:26:24;;;;;;;1.10;1.10;;;;;;;;;;4971625;28;20391;-62
2022/10/03 15:28:52;;;;;;;0.90;0.90;;;;;;;;;;4997602;28;20227;-62
2022/10/03 15:31:32;;;;;;;1.00;1.00;;;;;;;;;;4970455;28;20583;-62
2022/10/03 15:33:58;;;;;;;0.90;0.90;;;;;;;;;;4967309;28;21004;-62
2022/10/03 15:36:25;;;;;;;1.00;1.00;;;;;;;;;;4970656;28;20212;-62
2022/10/03 15:38:52;;;;;;;1.00;1.00;;;;;;;;;;4958528;28;20718;-62
2022/10/03 15:41:26;;;;;;;0.90;0.90;;;;;;;;;;4950387;28;20250;-62
2022/10/03 15:43:52;;;;;;;0.90;0.90;;;;;;;;;;4973876;28;20304;-61